sensor_id;sensor_type;location;lat;lon;timestamp;temperature;humidity
64561;DHT22;50960;46.838;16.838;2024-01-25T00:02:05;3.40;99.90
64561;DHT22;50960;46.838;16.838;2024-01-25T00:04:31;3.40;99.90
64561;DHT22;50960;46.838;16.838;2024-01-25T00:06:58;3.40;99.90
64561;DHT22;50960;46.838;16.838;2024-01-25T00:09:24;3.50;99.90
64561;DHT22;50960;46.838;16.838;2024-01-25T00:11:51;3.50;99.90
64561;DHT22;50960;46.838;16.838;2024-01-25T00:14:17;3.60;99.90
64561;DHT22;50960;46.838;16.838;2024-01-25T00:16:43;3.50;99.90
64561;DHT22;50960;46.838;16.838;2024-01-25T00:19:09;3.60;99.90
64561;DHT22;50960;46.838;16.838;2024-01-25T00:21:41;3.60;99.90
64561;DHT22;50960;46.838;16.838;2024-01-25T00:24:08;3.60;99.90
64561;DHT22;50960;46.838;16.838;2024-01-25T00:26:34;3.50;99.90
64561;DHT22;50960;46.838;16.838;2024-01-25T00:29:01;3.60;99.90
64561;DHT22;50960;46.838;16.838;2024-01-25T00:31:27;3.40;99.90
64561;DHT22;50960;46.838;16.838;2024-01-25T00:33:53;3.50;99.90
64561;DHT22;50960;46.838;16.838;2024-01-25T00:36:20;3.60;99.90
64561;DHT22;50960;46.838;16.838;2024-01-25T00:38:46;3.60;99.90
64561;DHT22;50960;46.838;16.838;2024-01-25T00:41:17;3.60;99.90
64561;DHT22;50960;46.838;16.838;2024-01-25T00:43:45;3.60;99.90
64561;DHT22;50960;46.838;16.838;2024-01-25T00:46:12;3.70;99.90
64561;DHT22;50960;46.838;16.838;2024-01-25T00:48:38;3.70;99.90
64561;DHT22;50960;46.838;16.838;2024-01-25T00:51:15;3.50;99.90
64561;DHT22;50960;46.838;16.838;2024-01-25T00:53:42;3.60;99.90
64561;DHT22;50960;46.838;16.838;2024-01-25T00:56:09;3.70;99.90
64561;DHT22;50960;46.838;16.838;2024-01-25T00:58:36;3.60;99.90
64561;DHT22;50960;46.838;16.838;2024-01-25T01:01:03;3.50;99.90
64561;DHT22;50960;46.838;16.838;2024-01-25T01:03:29;3.50;99.90
64561;DHT22;50960;46.838;16.838;2024-01-25T01:05:56;3.50;99.90
64561;DHT22;50960;46.838;16.838;2024-01-25T01:08:24;3.50;99.90
64561;DHT22;50960;46.838;16.838;2024-01-25T01:10:51;3.60;99.90
64561;DHT22;50960;46.838;16.838;2024-01-25T01:13:17;3.60;99.90
64561;DHT22;50960;46.838;16.838;2024-01-25T01:15:43;3.60;99.90
64561;DHT22;50960;46.838;16.838;2024-01-25T01:18:09;3.70;99.90
64561;DHT22;50960;46.838;16.838;2024-01-25T01:20:36;3.70;99.90
64561;DHT22;50960;46.838;16.838;2024-01-25T01:23:02;3.70;99.90
64561;DHT22;50960;46.838;16.838;2024-01-25T01:25:28;3.90;99.90
64561;DHT22;50960;46.838;16.838;2024-01-25T01:27:54;3.60;99.90
64561;DHT22;50960;46.838;16.838;2024-01-25T01:30:22;3.60;99.90
64561;DHT22;50960;46.838;16.838;2024-01-25T01:32:48;3.60;99.90
64561;DHT22;50960;46.838;16.838;2024-01-25T01:35:14;3.60;99.90
64561;DHT22;50960;46.838;16.838;2024-01-25T01:37:41;3.70;99.90
64561;DHT22;50960;46.838;16.838;2024-01-25T01:40:07;3.70;99.90
64561;DHT22;50960;46.838;16.838;2024-01-25T01:42:34;3.70;99.90
64561;DHT22;50960;46.838;16.838;2024-01-25T01:45:00;3.70;99.90
64561;DHT22;50960;46.838;16.838;2024-01-25T01:47:26;3.60;99.90
64561;DHT22;50960;46.838;16.838;2024-01-25T01:49:53;3.70;99.90
64561;DHT22;50960;46.838;16.838;2024-01-25T01:52:19;3.70;99.90
64561;DHT22;50960;46.838;16.838;2024-01-25T01:54:46;3.70;99.90
64561;DHT22;50960;46.838;16.838;2024-01-25T01:57:13;3.70;99.90
64561;DHT22;50960;46.838;16.838;2024-01-25T01:59:39;3.60;99.90
64561;DHT22;50960;46.838;16.838;2024-01-25T02:02:09;3.40;99.90
64561;DHT22;50960;46.838;16.838;2024-01-25T02:04:36;3.50;99.90
64561;DHT22;50960;46.838;16.838;2024-01-25T02:07:02;3.60;99.90
64561;DHT22;50960;46.838;16.838;2024-01-25T02:09:28;3.50;99.90
64561;DHT22;50960;46.838;16.838;2024-01-25T02:12:02;3.40;99.90
64561;DHT22;50960;46.838;16.838;2024-01-25T02:14:28;3.40;99.90
64561;DHT22;50960;46.838;16.838;2024-01-25T02:16:55;3.30;99.90
64561;DHT22;50960;46.838;16.838;2024-01-25T02:19:21;3.40;99.90
64561;DHT22;50960;46.838;16.838;2024-01-25T02:21:48;3.40;99.90
64561;DHT22;50960;46.838;16.838;2024-01-25T02:24:15;3.20;99.90
64561;DHT22;50960;46.838;16.838;2024-01-25T02:26:41;3.10;99.90
64561;DHT22;50960;46.838;16.838;2024-01-25T02:29:08;3.30;99.90
64561;DHT22;50960;46.838;16.838;2024-01-25T02:31:35;3.30;99.90
64561;DHT22;50960;46.838;16.838;2024-01-25T02:34:02;3.30;99.90
64561;DHT22;50960;46.838;16.838;2024-01-25T02:36:28;3.30;99.90
64561;DHT22;50960;46.838;16.838;2024-01-25T02:38:54;3.50;99.90
64561;DHT22;50960;46.838;16.838;2024-01-25T02:41:20;3.30;99.90
64561;DHT22;50960;46.838;16.838;2024-01-25T02:43:47;3.30;99.90
64561;DHT22;50960;46.838;16.838;2024-01-25T02:46:13;3.30;99.90
64561;DHT22;50960;46.838;16.838;2024-01-25T02:48:40;3.30;99.90
64561;DHT22;50960;46.838;16.838;2024-01-25T02:51:06;3.40;99.90
64561;DHT22;50960;46.838;16.838;2024-01-25T02:53:32;3.30;99.90
64561;DHT22;50960;46.838;16.838;2024-01-25T02:55:58;3.30;99.90
64561;DHT22;50960;46.838;16.838;2024-01-25T02:58:25;3.10;99.90
64561;DHT22;50960;46.838;16.838;2024-01-25T03:00:51;3.20;99.90
64561;DHT22;50960;46.838;16.838;2024-01-25T03:03:17;3.20;99.90
64561;DHT22;50960;46.838;16.838;2024-01-25T03:05:44;3.20;99.90
64561;DHT22;50960;46.838;16.838;2024-01-25T03:08:10;3.10;99.90
64561;DHT22;50960;46.838;16.838;2024-01-25T03:10:36;3.10;99.90
64561;DHT22;50960;46.838;16.838;2024-01-25T03:13:03;3.00;99.90
64561;DHT22;50960;46.838;16.838;2024-01-25T03:15:29;2.80;99.90
64561;DHT22;50960;46.838;16.838;2024-01-25T03:17:56;2.80;99.90
64561;DHT22;50960;46.838;16.838;2024-01-25T03:20:22;2.80;99.90
64561;DHT22;50960;46.838;16.838;2024-01-25T03:22:48;2.70;99.90
64561;DHT22;50960;46.838;16.838;2024-01-25T03:25:14;2.70;99.90
64561;DHT22;50960;46.838;16.838;2024-01-25T03:27:41;2.70;99.90
64561;DHT22;50960;46.838;16.838;2024-01-25T03:30:07;2.70;99.90
64561;DHT22;50960;46.838;16.838;2024-01-25T03:32:34;2.70;99.90
64561;DHT22;50960;46.838;16.838;2024-01-25T03:35:00;2.80;99.90
64561;DHT22;50960;46.838;16.838;2024-01-25T03:37:27;2.80;99.90
64561;DHT22;50960;46.838;16.838;2024-01-25T03:39:53;2.90;99.90
64561;DHT22;50960;46.838;16.838;2024-01-25T03:42:19;2.70;99.90
64561;DHT22;50960;46.838;16.838;2024-01-25T03:44:46;2.80;99.90
64561;DHT22;50960;46.838;16.838;2024-01-25T03:47:13;2.70;99.90
64561;DHT22;50960;46.838;16.838;2024-01-25T03:49:39;2.70;99.90
64561;DHT22;50960;46.838;16.838;2024-01-25T03:52:06;2.80;99.90
64561;DHT22;50960;46.838;16.838;2024-01-25T03:54:33;2.80;99.90
64561;DHT22;50960;46.838;16.838;2024-01-25T03:56:59;2.70;99.90
64561;DHT22;50960;46.838;16.838;2024-01-25T03:59:26;2.70;99.90
64561;DHT22;50960;46.838;16.838;2024-01-25T04:01:52;2.70;99.90
64561;DHT22;50960;46.838;16.838;2024-01-25T04:04:18;2.60;99.90
64561;DHT22;50960;46.838;16.838;2024-01-25T04:06:45;2.60;99.90
64561;DHT22;50960;46.838;16.838;2024-01-25T04:09:14;2.50;99.90
64561;DHT22;50960;46.838;16.838;2024-01-25T04:11:43;2.50;99.90
64561;DHT22;50960;46.838;16.838;2024-01-25T04:14:10;2.40;99.90
64561;DHT22;50960;46.838;16.838;2024-01-25T04:16:36;2.30;99.90
64561;DHT22;50960;46.838;16.838;2024-01-25T04:19:02;2.20;99.90
64561;DHT22;50960;46.838;16.838;2024-01-25T04:21:29;2.20;99.90
64561;DHT22;50960;46.838;16.838;2024-01-25T04:23:55;2.00;99.90
64561;DHT22;50960;46.838;16.838;2024-01-25T04:26:22;2.00;99.90
64561;DHT22;50960;46.838;16.838;2024-01-25T04:28:49;1.90;99.90
64561;DHT22;50960;46.838;16.838;2024-01-25T04:31:15;1.80;99.90
64561;DHT22;50960;46.838;16.838;2024-01-25T04:33:41;1.80;99.90
64561;DHT22;50960;46.838;16.838;2024-01-25T04:36:08;1.80;99.90
64561;DHT22;50960;46.838;16.838;2024-01-25T04:38:34;1.80;99.90
64561;DHT22;50960;46.838;16.838;2024-01-25T04:41:00;1.80;99.90
64561;DHT22;50960;46.838;16.838;2024-01-25T04:43:27;1.90;99.90
64561;DHT22;50960;46.838;16.838;2024-01-25T04:45:53;1.80;99.90
64561;DHT22;50960;46.838;16.838;2024-01-25T04:48:19;1.80;99.90
64561;DHT22;50960;46.838;16.838;2024-01-25T04:50:46;1.80;99.90
64561;DHT22;50960;46.838;16.838;2024-01-25T04:53:12;1.80;99.90
64561;DHT22;50960;46.838;16.838;2024-01-25T04:55:38;1.80;99.90
64561;DHT22;50960;46.838;16.838;2024-01-25T04:58:04;1.60;99.90
64561;DHT22;50960;46.838;16.838;2024-01-25T05:00:31;1.60;99.90
64561;DHT22;50960;46.838;16.838;2024-01-25T05:02:57;1.50;99.90
64561;DHT22;50960;46.838;16.838;2024-01-25T05:05:23;1.40;99.90
64561;DHT22;50960;46.838;16.838;2024-01-25T05:07:50;1.50;99.90
64561;DHT22;50960;46.838;16.838;2024-01-25T05:10:16;1.60;99.90
64561;DHT22;50960;46.838;16.838;2024-01-25T05:12:42;1.60;99.90
64561;DHT22;50960;46.838;16.838;2024-01-25T05:15:09;1.50;99.90
64561;DHT22;50960;46.838;16.838;2024-01-25T05:17:36;1.40;99.90
64561;DHT22;50960;46.838;16.838;2024-01-25T05:20:02;1.40;99.90
64561;DHT22;50960;46.838;16.838;2024-01-25T05:22:29;1.30;99.90
64561;DHT22;50960;46.838;16.838;2024-01-25T05:24:55;1.30;99.90
64561;DHT22;50960;46.838;16.838;2024-01-25T05:27:22;1.20;99.90
64561;DHT22;50960;46.838;16.838;2024-01-25T05:29:49;1.20;99.90
64561;DHT22;50960;46.838;16.838;2024-01-25T05:32:16;1.20;99.90
64561;DHT22;50960;46.838;16.838;2024-01-25T05:34:42;1.10;99.90
64561;DHT22;50960;46.838;16.838;2024-01-25T05:37:08;1.10;99.90
64561;DHT22;50960;46.838;16.838;2024-01-25T05:39:34;1.10;99.90
64561;DHT22;50960;46.838;16.838;2024-01-25T05:42:01;1.10;99.90
64561;DHT22;50960;46.838;16.838;2024-01-25T05:44:27;1.10;99.90
64561;DHT22;50960;46.838;16.838;2024-01-25T05:46:57;1.10;99.90
64561;DHT22;50960;46.838;16.838;2024-01-25T05:49:24;1.00;99.90
64561;DHT22;50960;46.838;16.838;2024-01-25T05:51:51;1.00;99.90
64561;DHT22;50960;46.838;16.838;2024-01-25T05:54:17;1.00;99.90
64561;DHT22;50960;46.838;16.838;2024-01-25T05:56:45;1.10;99.90
64561;DHT22;50960;46.838;16.838;2024-01-25T05:59:11;1.20;99.90
64561;DHT22;50960;46.838;16.838;2024-01-25T06:01:37;1.10;99.90
64561;DHT22;50960;46.838;16.838;2024-01-25T11:52:37;14.60;48.20
64561;DHT22;50960;46.838;16.838;2024-01-25T11:55:06;14.70;48.80
64561;DHT22;50960;46.838;16.838;2024-01-25T12:00:02;16.30;42.80
64561;DHT22;50960;46.838;16.838;2024-01-25T12:02:30;16.60;43.00
64561;DHT22;50960;46.838;16.838;2024-01-25T12:04:58;17.10;41.70
64561;DHT22;50960;46.838;16.838;2024-01-25T12:07:24;17.90;42.20
64561;DHT22;50960;46.838;16.838;2024-01-25T12:10:03;19.10;40.00
64561;DHT22;50960;46.838;16.838;2024-01-25T12:12:30;18.90;37.60
64561;DHT22;50960;46.838;16.838;2024-01-25T12:15:01;17.40;37.80
64561;DHT22;50960;46.838;16.838;2024-01-25T12:17:29;16.50;40.70
64561;DHT22;50960;46.838;16.838;2024-01-25T12:19:58;15.30;42.30
64561;DHT22;50960;46.838;16.838;2024-01-25T12:22:27;14.70;42.50
64561;DHT22;50960;46.838;16.838;2024-01-25T12:24:55;14.50;43.40
64561;DHT22;50960;46.838;16.838;2024-01-25T12:27:22;14.30;43.80
64561;DHT22;50960;46.838;16.838;2024-01-25T12:29:50;14.10;44.50
64561;DHT22;50960;46.838;16.838;2024-01-25T12:32:18;14.00;45.50
64561;DHT22;50960;46.838;16.838;2024-01-25T12:34:58;13.80;46.30
64561;DHT22;50960;46.838;16.838;2024-01-25T12:37:25;13.60;46.90
64561;DHT22;50960;46.838;16.838;2024-01-25T12:39:57;13.40;47.00
64561;DHT22;50960;46.838;16.838;2024-01-25T12:42:25;13.20;46.80
64561;DHT22;50960;46.838;16.838;2024-01-25T12:44:54;13.10;47.80
64561;DHT22;50960;46.838;16.838;2024-01-25T12:50:46;13.00;47.80
64561;DHT22;50960;46.838;16.838;2024-01-25T12:53:13;12.90;47.60
64561;DHT22;50960;46.838;16.838;2024-01-25T12:55:40;12.70;48.80
64561;DHT22;50960;46.838;16.838;2024-01-25T12:58:07;12.80;48.80
64561;DHT22;50960;46.838;16.838;2024-01-25T13:00:34;12.90;46.40
64561;DHT22;50960;46.838;16.838;2024-01-25T13:03:00;13.00;46.50
64561;DHT22;50960;46.838;16.838;2024-01-25T13:05:29;12.90;45.50
64561;DHT22;50960;46.838;16.838;2024-01-25T13:10:28;12.90;43.80
64561;DHT22;50960;46.838;16.838;2024-01-25T13:12:55;13.00;44.70
64561;DHT22;50960;46.838;16.838;2024-01-25T13:15:21;12.90;43.80
64561;DHT22;50960;46.838;16.838;2024-01-25T13:20:15;12.80;44.80
64561;DHT22;50960;46.838;16.838;2024-01-25T13:22:42;12.90;43.60
64561;DHT22;50960;46.838;16.838;2024-01-25T13:25:08;12.90;42.70
64561;DHT22;50960;46.838;16.838;2024-01-25T13:30:04;12.80;42.70
64561;DHT22;50960;46.838;16.838;2024-01-25T13:32:31;12.80;42.80
64561;DHT22;50960;46.838;16.838;2024-01-25T13:34:57;12.80;43.70
64561;DHT22;50960;46.838;16.838;2024-01-25T13:39:50;12.70;43.50
64561;DHT22;50960;46.838;16.838;2024-01-25T13:47:11;12.80;43.40
64561;DHT22;50960;46.838;16.838;2024-01-25T13:54:33;12.80;43.00
64561;DHT22;50960;46.838;16.838;2024-01-25T13:57:00;12.60;43.90
64561;DHT22;50960;46.838;16.838;2024-01-25T13:59:27;12.70;43.80
64561;DHT22;50960;46.838;16.838;2024-01-25T14:01:53;12.70;42.80
64561;DHT22;50960;46.838;16.838;2024-01-25T14:04:19;12.60;44.00
64561;DHT22;50960;46.838;16.838;2024-01-25T14:06:46;12.60;43.50
64561;DHT22;50960;46.838;16.838;2024-01-25T14:11:39;12.50;42.50
64561;DHT22;50960;46.838;16.838;2024-01-25T14:14:05;12.70;43.10
64561;DHT22;50960;46.838;16.838;2024-01-25T14:16:31;12.70;43.60
64561;DHT22;50960;46.838;16.838;2024-01-25T14:18:58;12.60;43.50
64561;DHT22;50960;46.838;16.838;2024-01-25T14:21:24;12.70;43.30
64561;DHT22;50960;46.838;16.838;2024-01-25T14:23:51;12.50;43.80
64561;DHT22;50960;46.838;16.838;2024-01-25T14:26:17;12.50;44.20
64561;DHT22;50960;46.838;16.838;2024-01-25T14:28:43;12.50;44.30
64561;DHT22;50960;46.838;16.838;2024-01-25T14:31:10;12.50;44.70
64561;DHT22;50960;46.838;16.838;2024-01-25T14:33:36;12.40;44.00
64561;DHT22;50960;46.838;16.838;2024-01-25T14:36:03;12.40;44.50
64561;DHT22;50960;46.838;16.838;2024-01-25T14:38:29;12.40;44.70
64561;DHT22;50960;46.838;16.838;2024-01-25T14:40:56;12.40;44.10
64561;DHT22;50960;46.838;16.838;2024-01-25T14:43:22;12.50;43.40
64561;DHT22;50960;46.838;16.838;2024-01-25T14:48:15;12.40;43.00
64561;DHT22;50960;46.838;16.838;2024-01-25T14:50:43;12.40;43.50
64561;DHT22;50960;46.838;16.838;2024-01-25T14:53:09;12.40;44.00
64561;DHT22;50960;46.838;16.838;2024-01-25T14:55:37;12.40;43.50
64561;DHT22;50960;46.838;16.838;2024-01-25T14:58:04;12.50;44.50
64561;DHT22;50960;46.838;16.838;2024-01-25T15:00:31;12.30;45.10
64561;DHT22;50960;46.838;16.838;2024-01-25T15:02:57;12.30;44.10
64561;DHT22;50960;46.838;16.838;2024-01-25T15:05:23;12.10;44.40
64561;DHT22;50960;46.838;16.838;2024-01-25T15:07:50;12.00;44.50
64561;DHT22;50960;46.838;16.838;2024-01-25T15:10:16;12.00;44.20
64561;DHT22;50960;46.838;16.838;2024-01-25T15:12:42;11.90;44.60
64561;DHT22;50960;46.838;16.838;2024-01-25T15:15:09;11.80;44.60
64561;DHT22;50960;46.838;16.838;2024-01-25T15:17:35;11.60;45.20
64561;DHT22;50960;46.838;16.838;2024-01-25T15:20:02;11.50;45.40
64561;DHT22;50960;46.838;16.838;2024-01-25T15:22:28;11.30;46.30
64561;DHT22;50960;46.838;16.838;2024-01-25T15:24:57;11.10;47.30
64561;DHT22;50960;46.838;16.838;2024-01-25T15:27:23;10.90;47.60
64561;DHT22;50960;46.838;16.838;2024-01-25T15:29:49;10.70;48.70
64561;DHT22;50960;46.838;16.838;2024-01-25T15:32:16;10.70;49.70
64561;DHT22;50960;46.838;16.838;2024-01-25T15:34:42;10.50;50.40
64561;DHT22;50960;46.838;16.838;2024-01-25T15:37:08;10.40;51.60
64561;DHT22;50960;46.838;16.838;2024-01-25T15:39:34;10.30;52.20
64561;DHT22;50960;46.838;16.838;2024-01-25T15:42:01;10.20;52.80
64561;DHT22;50960;46.838;16.838;2024-01-25T15:44:27;10.10;54.10
64561;DHT22;50960;46.838;16.838;2024-01-25T15:46:53;10.00;54.40
64561;DHT22;50960;46.838;16.838;2024-01-25T15:49:20;9.90;55.10
64561;DHT22;50960;46.838;16.838;2024-01-25T15:51:49;9.70;55.90
64561;DHT22;50960;46.838;16.838;2024-01-25T15:54:15;9.50;57.20
64561;DHT22;50960;46.838;16.838;2024-01-25T15:56:41;9.40;57.90
64561;DHT22;50960;46.838;16.838;2024-01-25T15:59:08;9.30;58.20
64561;DHT22;50960;46.838;16.838;2024-01-25T16:01:34;9.20;58.80
64561;DHT22;50960;46.838;16.838;2024-01-25T16:04:00;9.00;59.50
64561;DHT22;50960;46.838;16.838;2024-01-25T16:06:26;8.90;62.50
64561;DHT22;50960;46.838;16.838;2024-01-25T16:08:53;8.80;61.70
64561;DHT22;50960;46.838;16.838;2024-01-25T16:11:23;8.70;63.90
64561;DHT22;50960;46.838;16.838;2024-01-25T16:13:49;8.60;63.50
64561;DHT22;50960;46.838;16.838;2024-01-25T16:16:15;8.40;63.40
64561;DHT22;50960;46.838;16.838;2024-01-25T16:18:42;8.40;64.10
64561;DHT22;50960;46.838;16.838;2024-01-25T16:21:08;8.20;65.90
64561;DHT22;50960;46.838;16.838;2024-01-25T16:23:35;8.20;67.00
64561;DHT22;50960;46.838;16.838;2024-01-25T16:26:02;8.10;66.20
64561;DHT22;50960;46.838;16.838;2024-01-25T16:28:28;8.00;68.20
64561;DHT22;50960;46.838;16.838;2024-01-25T16:30:55;7.90;68.20
64561;DHT22;50960;46.838;16.838;2024-01-25T16:33:21;7.80;69.60
64561;DHT22;50960;46.838;16.838;2024-01-25T16:35:48;7.70;71.20
64561;DHT22;50960;46.838;16.838;2024-01-25T16:38:14;7.60;72.60
64561;DHT22;50960;46.838;16.838;2024-01-25T16:40:41;7.50;75.20
64561;DHT22;50960;46.838;16.838;2024-01-25T16:43:08;7.40;75.80
64561;DHT22;50960;46.838;16.838;2024-01-25T16:45:34;7.30;76.60
64561;DHT22;50960;46.838;16.838;2024-01-25T16:48:01;7.30;78.20
64561;DHT22;50960;46.838;16.838;2024-01-25T16:50:27;7.20;81.10
64561;DHT22;50960;46.838;16.838;2024-01-25T16:52:53;7.20;81.40
64561;DHT22;50960;46.838;16.838;2024-01-25T16:55:22;7.20;81.90
64561;DHT22;50960;46.838;16.838;2024-01-25T16:57:48;7.10;82.10
64561;DHT22;50960;46.838;16.838;2024-01-25T17:00:15;7.10;84.10
64561;DHT22;50960;46.838;16.838;2024-01-25T17:02:42;7.00;83.90
64561;DHT22;50960;46.838;16.838;2024-01-25T17:05:08;7.00;82.70
64561;DHT22;50960;46.838;16.838;2024-01-25T17:07:36;6.90;84.00
64561;DHT22;50960;46.838;16.838;2024-01-25T17:10:05;6.70;87.20
64561;DHT22;50960;46.838;16.838;2024-01-25T17:12:31;6.60;87.90
64561;DHT22;50960;46.838;16.838;2024-01-25T17:14:58;6.50;90.80
64561;DHT22;50960;46.838;16.838;2024-01-25T17:17:25;6.40;92.00
64561;DHT22;50960;46.838;16.838;2024-01-25T17:19:52;6.30;91.90
64561;DHT22;50960;46.838;16.838;2024-01-25T17:22:18;6.20;91.20
64561;DHT22;50960;46.838;16.838;2024-01-25T17:24:45;6.10;93.30
64561;DHT22;50960;46.838;16.838;2024-01-25T17:27:11;6.00;93.30
64561;DHT22;50960;46.838;16.838;2024-01-25T17:29:39;5.90;93.00
64561;DHT22;50960;46.838;16.838;2024-01-25T17:32:12;5.80;94.40
64561;DHT22;50960;46.838;16.838;2024-01-25T17:34:38;5.70;94.00
64561;DHT22;50960;46.838;16.838;2024-01-25T17:37:05;5.60;94.30
64561;DHT22;50960;46.838;16.838;2024-01-25T17:39:31;5.70;94.40
64561;DHT22;50960;46.838;16.838;2024-01-25T17:41:59;5.80;94.00
64561;DHT22;50960;46.838;16.838;2024-01-25T17:44:25;5.60;93.90
64561;DHT22;50960;46.838;16.838;2024-01-25T17:46:52;5.60;94.60
64561;DHT22;50960;46.838;16.838;2024-01-25T17:49:19;5.60;94.60
64561;DHT22;50960;46.838;16.838;2024-01-25T17:51:47;6.00;92.50
64561;DHT22;50960;46.838;16.838;2024-01-25T17:54:16;5.60;94.20
64561;DHT22;50960;46.838;16.838;2024-01-25T17:56:46;5.50;95.30
64561;DHT22;50960;46.838;16.838;2024-01-25T17:59:12;5.70;95.00
64561;DHT22;50960;46.838;16.838;2024-01-25T18:01:47;5.90;94.30
64561;DHT22;50960;46.838;16.838;2024-01-25T18:04:14;6.00;93.20
64561;DHT22;50960;46.838;16.838;2024-01-25T18:06:41;5.90;93.80
64561;DHT22;50960;46.838;16.838;2024-01-25T18:09:08;6.00;92.80
64561;DHT22;50960;46.838;16.838;2024-01-25T18:11:34;5.90;92.90
64561;DHT22;50960;46.838;16.838;2024-01-25T18:14:00;5.80;93.50
64561;DHT22;50960;46.838;16.838;2024-01-25T18:16:27;5.80;93.50
64561;DHT22;50960;46.838;16.838;2024-01-25T18:18:56;5.80;93.50
64561;DHT22;50960;46.838;16.838;2024-01-25T18:21:23;5.70;93.50
64561;DHT22;50960;46.838;16.838;2024-01-25T18:23:51;5.70;93.60
64561;DHT22;50960;46.838;16.838;2024-01-25T18:26:17;5.80;93.10
64561;DHT22;50960;46.838;16.838;2024-01-25T18:28:44;5.80;92.70
64561;DHT22;50960;46.838;16.838;2024-01-25T18:31:11;5.70;93.20
64561;DHT22;50960;46.838;16.838;2024-01-25T18:33:37;5.70;92.90
64561;DHT22;50960;46.838;16.838;2024-01-25T18:36:05;5.70;93.20
64561;DHT22;50960;46.838;16.838;2024-01-25T18:38:33;5.70;92.90
64561;DHT22;50960;46.838;16.838;2024-01-25T18:41:01;5.80;93.60
64561;DHT22;50960;46.838;16.838;2024-01-25T18:43:30;5.70;93.20
64561;DHT22;50960;46.838;16.838;2024-01-25T18:45:56;5.70;93.30
64561;DHT22;50960;46.838;16.838;2024-01-25T18:48:25;5.60;93.70
64561;DHT22;50960;46.838;16.838;2024-01-25T18:50:52;5.60;93.40
64561;DHT22;50960;46.838;16.838;2024-01-25T18:53:18;5.60;93.80
64561;DHT22;50960;46.838;16.838;2024-01-25T18:55:46;5.50;94.10
64561;DHT22;50960;46.838;16.838;2024-01-25T18:58:14;5.50;93.90
64561;DHT22;50960;46.838;16.838;2024-01-25T19:00:50;5.40;94.40
64561;DHT22;50960;46.838;16.838;2024-01-25T19:03:17;5.40;95.10
64561;DHT22;50960;46.838;16.838;2024-01-25T19:05:43;5.20;95.30
64561;DHT22;50960;46.838;16.838;2024-01-25T19:08:10;5.00;95.80
64561;DHT22;50960;46.838;16.838;2024-01-25T19:10:36;4.90;97.10
64561;DHT22;50960;46.838;16.838;2024-01-25T19:13:03;4.90;96.80
64561;DHT22;50960;46.838;16.838;2024-01-25T19:15:29;4.80;97.00
64561;DHT22;50960;46.838;16.838;2024-01-25T19:17:55;4.90;97.80
64561;DHT22;50960;46.838;16.838;2024-01-25T19:20:28;4.80;97.40
64561;DHT22;50960;46.838;16.838;2024-01-25T19:22:54;4.70;97.40
64561;DHT22;50960;46.838;16.838;2024-01-25T19:25:20;4.60;97.90
64561;DHT22;50960;46.838;16.838;2024-01-25T19:27:47;4.50;97.70
64561;DHT22;50960;46.838;16.838;2024-01-25T19:30:13;4.40;99.40
64561;DHT22;50960;46.838;16.838;2024-01-25T19:32:43;4.50;99.90
64561;DHT22;50960;46.838;16.838;2024-01-25T19:35:10;4.60;99.70
64561;DHT22;50960;46.838;16.838;2024-01-25T19:37:36;4.30;99.10
64561;DHT22;50960;46.838;16.838;2024-01-25T19:40:03;4.30;99.90
64561;DHT22;50960;46.838;16.838;2024-01-25T19:42:32;4.20;99.30
64561;DHT22;50960;46.838;16.838;2024-01-25T19:44:58;4.20;99.50
64561;DHT22;50960;46.838;16.838;2024-01-25T19:47:26;4.10;99.20
64561;DHT22;50960;46.838;16.838;2024-01-25T19:49:52;3.90;99.90
64561;DHT22;50960;46.838;16.838;2024-01-25T19:52:18;3.80;99.90
64561;DHT22;50960;46.838;16.838;2024-01-25T19:54:45;3.80;99.90
64561;DHT22;50960;46.838;16.838;2024-01-25T19:57:14;3.70;99.90
64561;DHT22;50960;46.838;16.838;2024-01-25T19:59:41;3.60;99.90
64561;DHT22;50960;46.838;16.838;2024-01-25T20:02:09;3.60;99.90
64561;DHT22;50960;46.838;16.838;2024-01-25T20:04:36;3.60;99.90
64561;DHT22;50960;46.838;16.838;2024-01-25T20:07:02;3.60;99.90
64561;DHT22;50960;46.838;16.838;2024-01-25T20:09:29;3.50;99.90
64561;DHT22;50960;46.838;16.838;2024-01-25T20:11:55;3.50;99.90
64561;DHT22;50960;46.838;16.838;2024-01-25T20:14:21;3.50;99.90
64561;DHT22;50960;46.838;16.838;2024-01-25T20:16:48;3.80;99.90
64561;DHT22;50960;46.838;16.838;2024-01-25T20:19:17;3.90;99.90
64561;DHT22;50960;46.838;16.838;2024-01-25T20:21:47;4.20;99.90
64561;DHT22;50960;46.838;16.838;2024-01-25T20:24:14;4.40;99.90
64561;DHT22;50960;46.838;16.838;2024-01-25T20:26:41;4.40;99.90
64561;DHT22;50960;46.838;16.838;2024-01-25T20:29:09;4.60;99.90
64561;DHT22;50960;46.838;16.838;2024-01-25T20:31:36;4.70;99.90
64561;DHT22;50960;46.838;16.838;2024-01-25T20:34:02;4.70;99.90
64561;DHT22;50960;46.838;16.838;2024-01-25T20:36:28;4.60;99.90
64561;DHT22;50960;46.838;16.838;2024-01-25T20:38:55;4.50;99.90
64561;DHT22;50960;46.838;16.838;2024-01-25T20:41:21;4.30;99.90
64561;DHT22;50960;46.838;16.838;2024-01-25T20:43:48;4.20;99.90
64561;DHT22;50960;46.838;16.838;2024-01-25T20:46:15;4.10;99.90
64561;DHT22;50960;46.838;16.838;2024-01-25T20:48:41;4.00;99.90
64561;DHT22;50960;46.838;16.838;2024-01-25T20:51:11;3.90;99.90
64561;DHT22;50960;46.838;16.838;2024-01-25T20:53:38;3.60;99.90
64561;DHT22;50960;46.838;16.838;2024-01-25T20:56:06;3.50;99.90
64561;DHT22;50960;46.838;16.838;2024-01-25T20:58:32;3.60;99.90
64561;DHT22;50960;46.838;16.838;2024-01-25T21:00:59;3.80;99.90
64561;DHT22;50960;46.838;16.838;2024-01-25T21:03:25;3.90;99.90
64561;DHT22;50960;46.838;16.838;2024-01-25T21:05:52;3.90;99.90
64561;DHT22;50960;46.838;16.838;2024-01-25T21:08:18;4.00;99.90
64561;DHT22;50960;46.838;16.838;2024-01-25T21:10:45;3.80;99.90
64561;DHT22;50960;46.838;16.838;2024-01-25T21:13:12;3.60;99.90
64561;DHT22;50960;46.838;16.838;2024-01-25T21:15:38;3.90;99.90
64561;DHT22;50960;46.838;16.838;2024-01-25T21:18:04;3.80;99.90
64561;DHT22;50960;46.838;16.838;2024-01-25T21:20:32;3.80;99.90
64561;DHT22;50960;46.838;16.838;2024-01-25T21:22:59;3.70;99.90
64561;DHT22;50960;46.838;16.838;2024-01-25T21:25:25;3.60;99.90
64561;DHT22;50960;46.838;16.838;2024-01-25T21:27:52;3.50;99.90
64561;DHT22;50960;46.838;16.838;2024-01-25T21:30:18;3.40;99.90
64561;DHT22;50960;46.838;16.838;2024-01-25T21:32:44;3.30;99.90
64561;DHT22;50960;46.838;16.838;2024-01-25T21:35:11;3.30;99.90
64561;DHT22;50960;46.838;16.838;2024-01-25T21:37:37;3.20;99.90
64561;DHT22;50960;46.838;16.838;2024-01-25T21:40:04;2.90;99.90
64561;DHT22;50960;46.838;16.838;2024-01-25T21:42:30;2.90;99.90
64561;DHT22;50960;46.838;16.838;2024-01-25T21:45:06;2.70;99.90